Time;durP1;ratioP1;P1;durP2;ratioP2;P2;SDS_P1;SDS_P2;PMS_P1;PMS_P2;Temp;Humidity;BMP_temperature;BMP_pressure;BME280_temperature;BME280_humidity;BME280_pressure;Samples;Min_cycle;Max_cycle;Signal;HPM_P1;HPM_P2
2023/08/11 00:02:02;;;;;;;2.67;0.90;;;20.40;88.10;;;;;;4992730;28;20660;-70
2023/08/11 00:04:32;;;;;;;2.33;0.97;;;20.20;85.10;;;;;;4974961;28;20214;-70
2023/08/11 00:07:02;;;;;;;8.83;1.70;;;20.40;84.40;;;;;;4975320;28;20648;-72
2023/08/11 00:09:29;;;;;;;5.63;0.70;;;20.20;85.50;;;;;;4992813;28;20265;-70
2023/08/11 00:11:56;;;;;;;2.60;1.17;;;20.20;82.30;;;;;;4992208;28;20645;-70
2023/08/11 00:14:24;;;;;;;3.10;0.90;;;20.00;84.50;;;;;;4992623;28;20185;-70
2023/08/11 00:16:51;;;;;;;4.60;0.80;;;20.80;83.60;;;;;;4992424;28;20590;-70
2023/08/11 00:19:19;;;;;;;5.90;1.33;;;20.50;78.10;;;;;;4992557;28;20188;-71
2023/08/11 00:21:46;;;;;;;3.83;1.07;;;20.40;80.60;;;;;;4990587;28;20258;-71
2023/08/11 00:24:14;;;;;;;1.73;0.90;;;20.20;80.00;;;;;;4993760;28;20229;-69
2023/08/11 00:26:41;;;;;;;5.90;1.13;;;20.10;82.10;;;;;;5006313;28;20507;-69
2023/08/11 00:29:08;;;;;;;2.47;0.90;;;20.50;79.20;;;;;;5004997;28;20659;-69
2023/08/11 00:31:36;;;;;;;3.07;0.80;;;20.40;75.90;;;;;;4993148;28;20201;-69
2023/08/11 00:34:03;;;;;;;2.80;1.03;;;20.60;78.40;;;;;;4993919;28;20188;-69
2023/08/11 00:36:31;;;;;;;3.00;1.10;;;21.40;77.90;;;;;;4993838;28;20171;-70
2023/08/11 00:39:00;;;;;;;2.97;0.83;;;21.10;69.70;;;;;;4976232;28;20662;-70
2023/08/11 00:41:30;;;;;;;3.37;0.90;;;21.10;71.60;;;;;;4993984;28;20222;-70
2023/08/11 00:43:58;;;;;;;2.97;1.10;;;21.30;68.00;;;;;;4974282;28;20181;-70
2023/08/11 00:46:25;;;;;;;3.47;1.00;;;21.60;67.70;;;;;;4992240;28;20182;-71
2023/08/11 00:48:53;;;;;;;2.23;0.97;;;22.10;61.40;;;;;;4996846;28;20182;-70
2023/08/11 00:51:23;;;;;;;2.20;1.10;;;22.10;58.90;;;;;;4997948;28;20186;-72
2023/08/11 00:53:51;;;;;;;1.70;0.90;;;22.00;63.10;;;;;;5010453;28;20197;-70
2023/08/11 00:56:23;;;;;;;4.53;0.63;;;22.10;61.90;;;;;;5018206;28;20188;-70
2023/08/11 00:58:51;;;;;;;2.57;0.70;;;22.20;56.10;;;;;;4985913;28;20682;-70
2023/08/11 01:01:18;;;;;;;1.97;0.70;;;22.10;52.70;;;;;;4998034;28;20283;-70
2023/08/11 01:03:47;;;;;;;4.93;0.93;;;22.10;52.60;;;;;;4998540;28;20260;-71
2023/08/11 01:06:27;;;;;;;2.43;0.63;;;22.80;55.70;;;;;;4997475;28;20596;-70
2023/08/11 01:09:21;;;;;;;1.30;0.53;;;23.20;47.90;;;;;;4996960;28;20194;-70
2023/08/11 01:11:56;;;;;;;3.43;0.70;;;22.80;43.70;;;;;;4998086;28;20178;-70
2023/08/11 01:14:56;;;;;;;2.43;0.87;;;22.70;45.80;;;;;;4998259;28;20656;-70
2023/08/11 01:17:25;;;;;;;2.10;0.70;;;22.80;44.00;;;;;;4998441;28;20183;-70
2023/08/11 01:19:52;;;;;;;3.07;0.40;;;22.70;41.60;;;;;;4998396;28;20206;-69
2023/08/11 01:22:23;;;;;;;3.23;0.70;;;23.40;41.70;;;;;;4998268;28;20234;-69
2023/08/11 01:24:51;;;;;;;3.13;0.93;;;23.60;38.60;;;;;;4998630;28;20237;-70
2023/08/11 01:27:20;;;;;;;2.07;0.70;;;24.00;36.30;;;;;;4981168;28;20195;-72
2023/08/11 01:29:50;;;;;;;1.97;0.70;;;23.50;37.00;;;;;;4999890;28;20281;-71
2023/08/11 01:32:18;;;;;;;1.97;0.47;;;23.60;34.00;;;;;;4999605;28;20266;-70
2023/08/11 01:34:46;;;;;;;1.57;0.63;;;24.30;33.20;;;;;;4999477;28;20174;-69
2023/08/11 01:37:13;;;;;;;2.93;0.67;;;24.80;32.70;;;;;;5009300;28;20210;-69
2023/08/11 01:39:43;;;;;;;1.67;0.67;;;25.00;32.90;;;;;;4999816;28;20206;-72
2023/08/11 01:42:12;;;;;;;1.33;0.50;;;25.40;31.70;;;;;;5007555;28;20178;-70
2023/08/11 01:44:40;;;;;;;3.33;0.70;;;25.20;29.40;;;;;;5008979;28;20177;-70
2023/08/11 01:47:09;;;;;;;1.37;0.67;;;24.50;28.80;;;;;;5008979;28;20179;-70
2023/08/11 01:49:37;;;;;;;2.30;0.70;;;25.00;29.40;;;;;;5008165;28;20180;-70
2023/08/11 01:52:06;;;;;;;2.00;0.60;;;25.20;27.40;;;;;;4982006;28;20186;-69
2023/08/11 01:54:34;;;;;;;0.93;0.67;;;24.40;27.90;;;;;;4999727;28;20667;-70
2023/08/11 01:57:03;;;;;;;4.17;0.60;;;24.90;27.40;;;;;;5009201;28;20532;-69
2023/08/11 01:59:30;;;;;;;3.50;0.77;;;24.90;25.30;;;;;;5003933;28;20214;-70
2023/08/11 02:01:58;;;;;;;2.50;0.50;;;25.00;25.50;;;;;;5006079;28;20186;-70
2023/08/11 02:04:28;;;;;;;3.90;0.60;;;25.10;24.10;;;;;;5005289;28;20264;-68
2023/08/11 02:06:56;;;;;;;3.23;0.63;;;25.90;22.40;;;;;;4997470;28;20271;-70
2023/08/11 02:09:23;;;;;;;2.37;0.77;;;25.80;23.50;;;;;;5003934;28;20177;-70
2023/08/11 02:11:51;;;;;;;4.30;0.50;;;25.10;23.30;;;;;;5006798;28;20182;-70
2023/08/11 02:14:19;;;;;;;2.17;0.77;;;25.20;21.80;;;;;;4995429;28;20552;-69
2023/08/11 02:16:47;;;;;;;2.73;0.80;;;24.80;24.30;;;;;;5015967;28;20264;-70
2023/08/11 02:22:37;;;;;;;1.27;0.50;;;24.10;22.60;;;;;;5014900;28;20245;-70
2023/08/11 02:25:09;;;;;;;2.40;0.60;;;24.30;22.80;;;;;;5011033;28;20183;-69
2023/08/11 02:27:37;;;;;;;2.97;0.80;;;24.90;21.00;;;;;;4996145;28;20187;-69
2023/08/11 02:30:06;;;;;;;2.87;0.90;;;24.80;20.10;;;;;;4996349;28;20193;-70
2023/08/11 02:32:34;;;;;;;2.07;0.70;;;25.40;19.80;;;;;;4996321;28;20233;-71
2023/08/11 02:35:02;;;;;;;4.73;0.70;;;25.50;19.80;;;;;;4983080;28;20301;-71
2023/08/11 02:37:29;;;;;;;1.73;0.50;;;25.50;21.90;;;;;;4987875;28;20202;-70
2023/08/11 02:39:57;;;;;;;2.17;0.50;;;24.50;20.10;;;;;;4974662;28;20230;-70
2023/08/11 02:42:25;;;;;;;1.20;0.40;;;24.50;21.50;;;;;;4975420;28;20186;-70
2023/08/11 02:44:53;;;;;;;1.37;0.63;;;25.10;21.30;;;;;;4994089;28;20205;-70
2023/08/11 02:47:21;;;;;;;3.47;0.67;;;25.70;19.40;;;;;;4994293;28;20194;-70
2023/08/11 02:49:49;;;;;;;1.60;0.77;;;25.60;19.50;;;;;;4993538;28;20186;-70
2023/08/11 02:52:16;;;;;;;2.63;0.60;;;25.10;19.10;;;;;;4976502;28;20179;-70
2023/08/11 02:54:44;;;;;;;3.27;0.93;;;24.00;20.50;;;;;;4993663;28;20257;-69
2023/08/11 02:57:12;;;;;;;2.80;0.60;;;24.20;20.80;;;;;;4993792;28;20175;-70
2023/08/11 02:59:39;;;;;;;3.03;0.70;;;24.60;21.90;;;;;;4993638;28;20217;-69
2023/08/11 03:02:07;;;;;;;3.13;0.80;;;25.10;20.20;;;;;;4993624;28;20194;-69
2023/08/11 03:04:36;;;;;;;2.90;0.67;;;25.10;18.90;;;;;;4993320;28;20191;-69
2023/08/11 03:07:09;;;;;;;3.33;0.60;;;25.00;19.10;;;;;;4993505;28;20179;-69
2023/08/11 03:09:37;;;;;;;2.63;0.87;;;25.10;18.00;;;;;;4976267;28;20195;-69
2023/08/11 03:12:06;;;;;;;3.33;0.77;;;25.00;20.10;;;;;;4993275;28;20178;-70
2023/08/11 03:14:39;;;;;;;2.33;0.57;;;25.00;18.10;;;;;;4993252;28;20249;-70
2023/08/11 03:17:09;;;;;;;4.03;0.77;;;24.60;18.50;;;;;;4993474;28;20171;-70
2023/08/11 03:19:37;;;;;;;3.53;0.90;;;24.70;17.70;;;;;;4976456;28;20251;-69
2023/08/11 03:22:09;;;;;;;1.57;0.60;;;24.70;20.00;;;;;;4993252;28;20301;-69
2023/08/11 03:24:37;;;;;;;3.87;1.10;;;24.90;17.80;;;;;;4993151;28;20741;-69
2023/08/11 03:27:05;;;;;;;1.30;0.50;;;24.60;16.40;;;;;;4992935;28;20233;-70
2023/08/11 03:29:32;;;;;;;3.97;0.93;;;24.40;18.50;;;;;;4993104;28;20553;-70
2023/08/11 03:32:00;;;;;;;3.60;1.10;;;24.30;16.40;;;;;;4993356;28;20640;-70
2023/08/11 03:34:28;;;;;;;2.73;1.00;;;24.40;16.40;;;;;;4993061;28;20183;-69
2023/08/11 03:36:56;;;;;;;3.27;0.80;;;24.90;16.60;;;;;;4993276;28;20189;-70
2023/08/11 03:39:24;;;;;;;3.57;1.07;;;25.00;17.80;;;;;;4975587;28;20206;-70
2023/08/11 03:41:52;;;;;;;2.97;0.70;;;25.00;15.30;;;;;;4975683;28;20179;-70
2023/08/11 03:44:20;;;;;;;2.03;0.90;;;24.90;16.70;;;;;;4992897;28;20192;-70
2023/08/11 03:46:48;;;;;;;4.63;0.77;;;24.50;15.00;;;;;;4993154;28;20175;-70
2023/08/11 03:49:17;;;;;;;1.20;0.73;;;24.10;17.20;;;;;;4992739;28;20237;-69
2023/08/11 03:51:44;;;;;;;3.80;1.13;;;24.10;17.80;;;;;;4992708;28;20181;-69
2023/08/11 03:54:12;;;;;;;1.67;0.70;;;24.40;15.80;;;;;;4992871;28;20194;-69
2023/08/11 03:56:40;;;;;;;3.30;0.70;;;24.20;16.00;;;;;;4993515;28;20524;-69
2023/08/11 03:59:08;;;;;;;5.00;0.90;;;24.40;16.20;;;;;;4994095;28;20190;-69
2023/08/11 04:01:36;;;;;;;8.43;0.87;;;24.20;15.80;;;;;;4976471;28;20222;-69
2023/08/11 04:04:04;;;;;;;2.53;0.90;;;24.20;14.90;;;;;;4994073;28;20186;-69
2023/08/11 04:06:33;;;;;;;5.03;0.90;;;23.40;14.90;;;;;;4993654;28;20201;-69
2023/08/11 04:09:01;;;;;;;3.23;0.80;;;23.40;15.10;;;;;;4994253;28;20202;-69
2023/08/11 04:11:32;;;;;;;1.90;0.87;;;22.90;14.60;;;;;;4994273;28;20209;-69
2023/08/11 04:14:00;;;;;;;4.97;1.20;;;23.20;15.20;;;;;;4993729;28;20210;-69
2023/08/11 04:16:28;;;;;;;1.13;0.60;;;23.40;14.60;;;;;;4993669;28;20221;-69
2023/08/11 04:18:56;;;;;;;3.43;0.70;;;23.60;14.60;;;;;;4993758;28;20190;-69
2023/08/11 04:21:24;;;;;;;6.27;1.00;;;23.50;15.10;;;;;;4993833;28;20230;-69
2023/08/11 04:23:51;;;;;;;3.87;1.17;;;23.70;13.50;;;;;;4992969;28;20732;-69
2023/08/11 04:26:20;;;;;;;9.20;1.07;;;23.30;14.10;;;;;;4998718;28;20191;-70
2023/08/11 04:28:48;;;;;;;1.60;0.67;;;23.10;14.50;;;;;;5003232;28;20178;-69
2023/08/11 04:31:15;;;;;;;4.50;0.83;;;23.00;13.60;;;;;;5002213;28;20738;-70
2023/08/11 04:33:43;;;;;;;5.80;0.80;;;23.10;12.80;;;;;;5002052;28;20189;-70
2023/08/11 04:36:11;;;;;;;5.30;1.07;;;23.30;13.90;;;;;;5002303;28;20263;-69
2023/08/11 04:38:39;;;;;;;10.87;1.77;;;23.10;13.00;;;;;;4999917;28;20651;-69
2023/08/11 04:41:07;;;;;;;2.70;0.67;;;23.00;14.30;;;;;;5002680;28;20282;-69
2023/08/11 04:43:35;;;;;;;4.23;1.03;;;22.90;14.30;;;;;;5001385;28;20186;-69
2023/08/11 04:46:03;;;;;;;2.53;0.80;;;23.10;13.90;;;;;;5004479;28;20258;-70
2023/08/11 04:48:32;;;;;;;3.07;1.00;;;23.20;14.10;;;;;;4996067;28;20183;-69
2023/08/11 04:50:59;;;;;;;4.73;1.10;;;23.40;13.40;;;;;;5001327;28;20533;-69
2023/08/11 04:53:27;;;;;;;3.27;1.10;;;22.80;13.00;;;;;;5006365;28;20186;-69
2023/08/11 04:55:55;;;;;;;3.80;0.90;;;22.80;14.40;;;;;;4992971;28;20198;-69
2023/08/11 04:58:23;;;;;;;6.60;1.20;;;22.70;13.80;;;;;;4993737;28;20190;-70
2023/08/11 05:00:51;;;;;;;5.47;1.10;;;22.40;13.90;;;;;;4975768;28;20210;-70
2023/08/11 05:03:19;;;;;;;8.70;0.97;;;22.00;13.90;;;;;;4974419;28;20197;-71
2023/08/11 05:05:47;;;;;;;6.87;0.90;;;21.90;14.00;;;;;;4991984;28;20197;-69
2023/08/11 05:08:15;;;;;;;4.47;0.70;;;22.20;16.10;;;;;;4992148;28;20171;-69
2023/08/11 05:10:43;;;;;;;6.20;1.03;;;22.50;14.30;;;;;;4990783;28;20632;-69
2023/08/11 05:13:10;;;;;;;2.93;0.90;;;22.50;13.70;;;;;;4974082;28;20577;-71
2023/08/11 05:15:38;;;;;;;10.30;2.13;;;22.60;14.00;;;;;;4991887;28;20632;-69
2023/08/11 05:18:07;;;;;;;4.57;1.10;;;22.40;13.80;;;;;;4992155;28;20182;-69
2023/08/11 05:20:35;;;;;;;2.37;0.97;;;22.10;13.80;;;;;;4973903;28;20226;-68
2023/08/11 05:23:04;;;;;;;5.47;0.90;;;21.90;14.30;;;;;;4991483;28;20203;-69
2023/08/11 05:25:31;;;;;;;1.77;0.80;;;21.90;14.20;;;;;;4974554;28;20191;-70
2023/08/11 05:27:59;;;;;;;2.83;1.17;;;21.70;13.70;;;;;;4991822;28;20686;-70
2023/08/11 05:30:27;;;;;;;5.80;1.07;;;21.90;13.40;;;;;;4991962;28;20218;-70
2023/08/11 05:32:56;;;;;;;2.33;1.00;;;21.70;13.00;;;;;;4991782;28;20663;-69
2023/08/11 05:35:26;;;;;;;4.50;0.97;;;21.60;13.70;;;;;;4994210;28;20194;-70
2023/08/11 05:37:54;;;;;;;3.40;1.17;;;21.40;14.20;;;;;;4995421;28;20186;-70
2023/08/11 05:40:22;;;;;;;2.37;0.90;;;21.50;14.70;;;;;;4995696;28;20217;-68
2023/08/11 05:42:50;;;;;;;2.73;1.20;;;21.70;14.20;;;;;;4995511;28;20178;-70
2023/08/11 05:45:18;;;;;;;3.83;0.90;;;21.50;14.50;;;;;;4995345;28;20194;-69
2023/08/11 05:47:46;;;;;;;3.70;0.90;;;21.20;14.20;;;;;;4977751;28;20189;-70
2023/08/11 05:50:14;;;;;;;3.20;1.00;;;21.20;14.10;;;;;;4995095;28;20277;-69
2023/08/11 05:52:41;;;;;;;2.13;1.17;;;21.30;14.40;;;;;;4995364;28;20175;-69
2023/08/11 05:55:09;;;;;;;5.10;1.00;;;21.50;14.20;;;;;;4994838;28;20183;-70
2023/08/11 05:57:37;;;;;;;3.97;0.97;;;21.40;13.90;;;;;;4977286;28;20197;-69
2023/08/11 06:00:08;;;;;;;2.70;1.20;;;21.40;14.50;;;;;;4995206;28;20579;-69
2023/08/11 06:02:40;;;;;;;4.27;1.63;;;21.20;15.30;;;;;;4995009;28;20185;-69
2023/08/11 06:05:08;;;;;;;3.73;1.20;;;21.00;15.30;;;;;;4994985;28;20553;-69
2023/08/11 06:07:36;;;;;;;4.57;0.97;;;20.80;15.40;;;;;;4994984;28;20178;-69
2023/08/11 06:10:04;;;;;;;2.27;1.13;;;20.50;15.70;;;;;;4994586;28;20182;-70
2023/08/11 06:12:32;;;;;;;2.50;1.00;;;20.30;16.40;;;;;;4994630;28;20197;-70
2023/08/11 06:15:00;;;;;;;3.97;1.07;;;20.10;16.80;;;;;;4994864;28;20189;-69
2023/08/11 06:17:28;;;;;;;5.23;1.30;;;19.90;17.60;;;;;;4994889;28;20186;-70
2023/08/11 06:19:57;;;;;;;5.00;1.30;;;19.60;18.20;;;;;;4995606;28;20240;-69
2023/08/11 06:22:25;;;;;;;4.77;1.60;;;19.80;18.40;;;;;;4993687;28;20261;-69
2023/08/11 06:24:54;;;;;;;3.90;1.30;;;19.70;17.80;;;;;;4994558;28;20550;-69
2023/08/11 06:27:21;;;;;;;4.77;1.60;;;19.60;18.00;;;;;;4994483;28;20185;-69
2023/08/11 06:29:49;;;;;;;7.40;1.77;;;19.50;19.20;;;;;;4994797;28;20278;-69
2023/08/11 06:32:17;;;;;;;2.20;1.03;;;19.40;18.70;;;;;;4994037;28;20189;-69
2023/08/11 06:34:45;;;;;;;5.50;1.57;;;19.40;18.70;;;;;;4994093;28;20208;-69
2023/08/11 06:37:13;;;;;;;10.73;1.80;;;19.30;19.10;;;;;;4993895;28;20178;-69
2023/08/11 06:39:41;;;;;;;6.60;1.03;;;19.30;19.00;;;;;;4993624;28;20328;-68
2023/08/11 06:42:08;;;;;;;2.47;1.03;;;19.20;19.70;;;;;;4993779;28;20273;-69
2023/08/11 06:44:37;;;;;;;2.37;1.10;;;19.10;19.70;;;;;;4993916;28;20186;-69
2023/08/11 06:47:04;;;;;;;3.97;1.70;;;19.00;20.40;;;;;;4997244;28;20179;-69
2023/08/11 06:49:32;;;;;;;3.77;1.47;;;19.00;21.10;;;;;;4995909;28;20187;-69
2023/08/11 06:52:00;;;;;;;5.47;1.93;;;18.90;21.20;;;;;;4994191;28;20279;-68
2023/08/11 06:54:28;;;;;;;2.60;1.20;;;18.80;22.50;;;;;;4994081;28;20178;-68
2023/08/11 06:56:56;;;;;;;2.20;0.97;;;18.80;21.80;;;;;;4993288;28;20578;-68
2023/08/11 06:59:23;;;;;;;2.90;1.40;;;18.90;21.60;;;;;;4993173;28;20188;-68
2023/08/11 07:01:51;;;;;;;3.40;1.10;;;18.90;21.50;;;;;;4993145;28;20726;-69
2023/08/11 07:04:20;;;;;;;1.53;1.07;;;18.70;23.50;;;;;;4992460;28;20183;-69
2023/08/11 07:06:48;;;;;;;5.53;1.80;;;18.40;23.90;;;;;;4993269;28;20205;-71
2023/08/11 07:09:16;;;;;;;3.47;1.50;;;18.30;24.90;;;;;;4993151;28;20185;-70
2023/08/11 07:11:43;;;;;;;6.50;2.03;;;18.20;27.60;;;;;;4994729;28;20269;-70
2023/08/11 07:14:11;;;;;;;5.87;1.60;;;18.10;26.70;;;;;;4993951;28;20540;-69
2023/08/11 07:16:39;;;;;;;1.80;1.23;;;17.90;28.20;;;;;;4994286;28;20179;-71
2023/08/11 07:19:07;;;;;;;3.83;1.60;;;17.80;29.20;;;;;;4994297;28;20190;-71
2023/08/11 07:21:35;;;;;;;3.40;1.57;;;17.60;30.30;;;;;;4994240;28;20243;-69
2023/08/11 07:24:03;;;;;;;3.27;1.50;;;17.50;35.60;;;;;;4994365;28;20283;-70
2023/08/11 07:26:30;;;;;;;2.83;1.47;;;17.40;35.50;;;;;;4994562;28;20190;-70
2023/08/11 07:28:58;;;;;;;3.03;1.20;;;17.30;36.40;;;;;;5003984;28;20185;-70
2023/08/11 07:31:26;;;;;;;2.60;1.40;;;17.20;37.90;;;;;;4979774;28;20324;-71
2023/08/11 07:33:54;;;;;;;5.80;1.20;;;17.00;40.20;;;;;;4982210;28;20198;-71
2023/08/11 07:36:22;;;;;;;3.40;1.63;;;16.80;42.00;;;;;;4994369;28;20171;-69
2023/08/11 07:38:50;;;;;;;3.33;1.60;;;16.60;44.50;;;;;;4996663;28;20192;-71
2023/08/11 07:41:18;;;;;;;4.57;1.77;;;16.40;49.60;;;;;;4995712;28;20214;-70
2023/08/11 07:43:45;;;;;;;7.30;1.63;;;16.20;51.60;;;;;;4993845;28;20175;-69
2023/08/11 07:46:13;;;;;;;4.80;1.80;;;16.00;54.80;;;;;;4976380;28;20191;-70
2023/08/11 07:48:41;;;;;;;5.17;1.70;;;15.90;59.20;;;;;;5004106;28;20194;-70
2023/08/11 07:51:09;;;;;;;4.87;1.63;;;15.70;66.80;;;;;;4991636;28;20194;-69
2023/08/11 07:53:38;;;;;;;2.37;1.43;;;15.60;76.40;;;;;;4993910;28;20194;-71
2023/08/11 07:56:05;;;;;;;7.17;1.80;;;15.50;85.80;;;;;;4993576;28;20194;-71
2023/08/11 07:58:33;;;;;;;2.40;1.40;;;15.40;92.80;;;;;;4994060;28;20237;-70
2023/08/11 08:01:01;;;;;;;4.03;1.70;;;15.30;96.70;;;;;;4999700;28;20221;-70
2023/08/11 08:03:29;;;;;;;10.30;3.77;;;15.20;98.40;;;;;;5000911;28;20620;-69
2023/08/11 08:05:57;;;;;;;8.00;2.90;;;15.10;99.90;;;;;;4994537;28;20209;-70
2023/08/11 08:08:24;;;;;;;9.93;2.83;;;14.90;99.90;;;;;;4994591;28;20186;-71
2023/08/11 08:10:52;;;;;;;6.27;2.37;;;14.90;99.90;;;;;;5003167;28;20587;-70
2023/08/11 08:13:20;;;;;;;5.43;2.30;;;14.80;99.90;;;;;;4993171;28;20215;-70
2023/08/11 08:15:48;;;;;;;4.37;2.13;;;14.70;99.90;;;;;;4994547;28;20189;-71
2023/08/11 08:18:16;;;;;;;4.97;2.17;;;14.60;99.90;;;;;;4994577;28;20269;-70
2023/08/11 08:20:46;;;;;;;7.47;2.07;;;14.50;99.90;;;;;;4993574;28;20669;-71
2023/08/11 08:23:14;;;;;;;7.33;2.20;;;14.40;99.90;;;;;;4993323;28;20186;-70
2023/08/11 08:25:42;;;;;;;9.87;1.90;;;14.40;99.90;;;;;;4994121;28;20201;-69
2023/08/11 08:28:13;;;;;;;9.47;2.67;;;14.30;99.90;;;;;;4994405;28;20183;-69
2023/08/11 08:30:41;;;;;;;6.03;1.70;;;14.20;99.90;;;;;;4994194;28;20186;-70
2023/08/11 08:33:09;;;;;;;6.63;2.33;;;14.10;99.90;;;;;;4994258;28;20186;-70
2023/08/11 08:35:37;;;;;;;8.80;2.80;;;14.10;99.90;;;;;;4994006;28;20185;-70
2023/08/11 08:38:05;;;;;;;4.03;2.13;;;14.00;99.90;;;;;;4993987;28;20268;-70
2023/08/11 08:40:35;;;;;;;2.80;1.93;;;13.90;99.90;;;;;;4993692;28;20232;-69
2023/08/11 08:43:04;;;;;;;6.60;2.30;;;13.80;99.90;;;;;;4993713;28;20722;-69
2023/08/11 08:45:32;;;;;;;6.57;2.07;;;13.70;99.90;;;;;;4976358;28;20590;-70
2023/08/11 08:48:01;;;;;;;3.87;1.90;;;13.60;99.90;;;;;;4993856;28;20178;-70
2023/08/11 08:50:29;;;;;;;4.67;2.07;;;13.50;99.90;;;;;;4993589;28;20196;-69
2023/08/11 08:53:01;;;;;;;5.13;2.07;;;13.40;99.90;;;;;;4993703;28;20186;-71
2023/08/11 08:55:28;;;;;;;9.00;2.03;;;13.30;99.90;;;;;;4993825;28;20277;-70
2023/08/11 08:57:56;;;;;;;4.57;1.80;;;13.20;99.90;;;;;;4993981;28;20181;-70
2023/08/11 09:00:25;;;;;;;8.27;2.17;;;13.10;99.90;;;;;;4993899;28;20208;-70
2023/08/11 09:02:55;;;;;;;5.53;2.10;;;13.00;99.90;;;;;;4975477;28;20589;-70
2023/08/11 09:05:23;;;;;;;6.43;2.23;;;13.00;99.90;;;;;;4993719;28;20253;-70
2023/08/11 09:07:51;;;;;;;5.60;2.30;;;13.00;99.90;;;;;;4993270;28;20185;-70
2023/08/11 09:10:19;;;;;;;8.10;3.00;;;12.90;99.90;;;;;;4996693;28;20233;-69
2023/08/11 09:12:50;;;;;;;12.63;3.30;;;13.10;99.90;;;;;;4997424;28;20205;-71
2023/08/11 09:15:18;;;;;;;11.27;3.00;;;13.10;99.90;;;;;;4997516;28;20225;-70
2023/08/11 09:17:49;;;;;;;7.63;3.17;;;13.30;99.90;;;;;;4997531;28;20213;-70
2023/08/11 09:20:19;;;;;;;4.97;2.60;;;13.30;99.90;;;;;;4997092;28;20224;-70
2023/08/11 09:22:47;;;;;;;3.73;2.53;;;13.30;99.90;;;;;;4997280;28;20695;-70
2023/08/11 09:25:16;;;;;;;6.20;3.00;;;13.30;99.90;;;;;;4997356;28;20185;-71
2023/08/11 09:27:44;;;;;;;6.60;3.17;;;13.20;99.90;;;;;;4997178;28;20182;-69
2023/08/11 09:30:14;;;;;;;6.10;3.20;;;13.20;99.90;;;;;;4997133;28;20190;-69
2023/08/11 09:32:47;;;;;;;7.57;3.27;;;13.20;99.90;;;;;;4996957;28;20186;-70
2023/08/11 09:35:14;;;;;;;11.20;3.37;;;13.20;99.90;;;;;;4996743;28;20194;-70
2023/08/11 09:37:46;;;;;;;8.57;3.70;;;13.00;99.90;;;;;;4976097;28;20178;-69
2023/08/11 09:40:14;;;;;;;6.90;3.80;;;13.00;99.90;;;;;;4977299;28;20213;-70
2023/08/11 09:42:42;;;;;;;5.77;2.90;;;13.00;99.90;;;;;;4995020;28;20603;-70
2023/08/11 09:45:10;;;;;;;7.00;3.93;;;12.90;99.90;;;;;;4995322;28;20186;-70
2023/08/11 09:47:38;;;;;;;7.60;3.23;;;12.80;99.90;;;;;;4995416;28;20189;-70
2023/08/11 09:50:10;;;;;;;4.87;3.50;;;12.70;99.90;;;;;;4995781;28;20264;-70
2023/08/11 09:52:39;;;;;;;7.20;3.10;;;12.70;99.90;;;;;;4995150;28;20203;-70
2023/08/11 09:55:10;;;;;;;8.60;3.43;;;12.70;99.90;;;;;;4995414;28;20602;-69
2023/08/11 09:57:40;;;;;;;6.43;3.03;;;12.70;99.90;;;;;;4995577;28;20217;-69
2023/08/11 10:00:11;;;;;;;8.70;3.20;;;12.70;99.90;;;;;;4995378;28;20252;-68
2023/08/11 10:02:46;;;;;;;8.67;3.50;;;12.60;99.90;;;;;;4996190;28;20276;-70
2023/08/11 10:05:16;;;;;;;7.20;3.60;;;12.60;99.90;;;;;;4996701;28;20220;-69
2023/08/11 10:07:47;;;;;;;6.63;3.33;;;12.60;99.90;;;;;;4995688;28;20241;-70
2023/08/11 10:10:18;;;;;;;6.73;3.67;;;12.60;99.90;;;;;;4995219;28;20620;-70
2023/08/11 10:12:57;;;;;;;9.17;5.23;;;12.50;99.90;;;;;;4978392;28;20544;-70
2023/08/11 10:15:30;;;;;;;17.33;6.90;;;12.50;99.90;;;;;;4996055;28;20285;-70
2023/08/11 10:17:58;;;;;;;12.63;6.63;;;12.40;99.90;;;;;;4996295;28;20186;-69
2023/08/11 10:20:26;;;;;;;12.90;5.37;;;12.30;99.90;;;;;;4994839;28;20303;-69
2023/08/11 10:22:55;;;;;;;12.07;5.47;;;12.30;99.90;;;;;;4995823;28;20240;-69
2023/08/11 10:25:24;;;;;;;10.47;6.23;;;12.10;99.90;;;;;;4996210;28;20321;-69
2023/08/11 10:27:53;;;;;;;13.03;7.50;;;12.00;99.90;;;;;;4995912;28;20263;-70
2023/08/11 10:30:22;;;;;;;12.70;7.83;;;12.00;99.90;;;;;;4996004;28;20182;-70
2023/08/11 10:33:06;;;;;;;12.47;8.37;;;11.90;99.90;;;;;;4996051;28;20177;-68
2023/08/11 10:35:47;;;;;;;19.03;9.57;;;11.80;99.90;;;;;;4996629;28;20654;-69
2023/08/11 10:38:27;;;;;;;20.13;9.43;;;11.80;99.90;;;;;;5003596;28;20674;-70
2023/08/11 10:41:10;;;;;;;16.40;9.30;;;11.70;99.90;;;;;;5013240;28;20314;-68
2023/08/11 10:43:43;;;;;;;14.17;7.30;;;11.70;99.90;;;;;;4997771;28;20188;-69
2023/08/11 10:46:26;;;;;;;13.87;7.10;;;11.70;99.90;;;;;;4997641;28;20533;-69
2023/08/11 10:48:57;;;;;;;13.07;6.90;;;11.50;99.90;;;;;;5015410;28;20268;-69
2023/08/11 10:51:36;;;;;;;11.23;6.57;;;11.40;99.90;;;;;;4997425;28;20203;-69
2023/08/11 10:54:28;;;;;;;12.53;7.40;;;11.40;99.90;;;;;;5015491;28;20179;-70
2023/08/11 10:56:59;;;;;;;12.67;6.90;;;11.40;99.90;;;;;;5014826;28;20234;-70
2023/08/11 10:59:30;;;;;;;11.63;7.23;;;11.30;99.90;;;;;;5014899;28;20198;-69
2023/08/11 11:02:08;;;;;;;9.20;6.30;;;11.20;99.90;;;;;;5014849;28;20296;-70
2023/08/11 11:04:35;;;;;;;14.27;7.93;;;11.20;99.90;;;;;;5014976;28;20188;-70
2023/08/11 11:07:04;;;;;;;11.93;7.60;;;11.10;99.90;;;;;;4997222;28;20191;-69
2023/08/11 11:09:35;;;;;;;9.90;7.13;;;11.00;99.90;;;;;;5014737;28;20184;-70
2023/08/11 11:12:03;;;;;;;13.13;6.93;;;10.90;99.90;;;;;;5012241;28;20185;-69
2023/08/11 11:14:31;;;;;;;11.17;7.33;;;10.90;99.90;;;;;;5014082;28;20178;-69
2023/08/11 11:17:03;;;;;;;11.97;7.87;;;10.80;99.90;;;;;;5014923;28;20518;-70
2023/08/11 11:19:31;;;;;;;13.97;7.80;;;10.70;99.90;;;;;;5014586;28;20187;-70
2023/08/11 11:22:01;;;;;;;12.70;7.47;;;10.70;99.90;;;;;;5014822;28;20231;-70
2023/08/11 11:24:29;;;;;;;28.47;14.30;;;10.70;99.90;;;;;;5014122;28;20716;-70
2023/08/11 11:26:57;;;;;;;36.03;16.90;;;10.70;99.90;;;;;;4997043;28;20191;-69
2023/08/11 11:29:27;;;;;;;42.03;23.20;;;10.70;99.90;;;;;;5014218;28;20715;-69
2023/08/11 11:31:56;;;;;;;48.47;26.30;;;10.60;99.90;;;;;;5011960;28;20185;-69
2023/08/11 11:34:24;;;;;;;26.67;15.60;;;10.60;99.90;;;;;;4991973;28;20183;-69
2023/08/11 11:36:52;;;;;;;33.93;16.93;;;10.60;99.90;;;;;;4994423;28;20236;-71
2023/08/11 11:39:20;;;;;;;34.73;17.53;;;10.50;99.90;;;;;;4993944;28;20193;-70
2023/08/11 11:41:48;;;;;;;32.80;16.13;;;10.50;99.90;;;;;;4993869;28;20216;-68
2023/08/11 11:44:18;;;;;;;29.57;14.70;;;10.50;99.90;;;;;;4993967;28;20184;-68
2023/08/11 11:46:45;;;;;;;29.67;12.60;;;10.40;99.90;;;;;;4994201;28;20187;-69
2023/08/11 11:49:16;;;;;;;24.97;11.70;;;10.30;99.90;;;;;;4976801;28;20271;-68
2023/08/11 11:51:47;;;;;;;24.93;10.80;;;10.20;99.90;;;;;;4994363;28;20183;-69
2023/08/11 11:54:15;;;;;;;23.20;13.17;;;10.20;99.90;;;;;;4993965;28;20537;-69
2023/08/11 11:56:43;;;;;;;31.60;13.63;;;10.10;99.90;;;;;;4994309;28;20191;-68
2023/08/11 11:59:11;;;;;;;32.77;14.70;;;10.10;99.90;;;;;;4993503;28;20185;-68
2023/08/11 12:01:40;;;;;;;26.43;12.57;;;10.10;99.90;;;;;;4993830;28;20217;-68
2023/08/11 12:04:08;;;;;;;24.70;11.80;;;10.00;99.90;;;;;;4994042;28;20207;-68
2023/08/11 12:06:37;;;;;;;23.47;12.67;;;10.10;99.90;;;;;;4994068;28;20189;-68
2023/08/11 12:09:13;;;;;;;21.50;11.77;;;10.00;99.90;;;;;;4992873;28;20181;-68
2023/08/11 12:11:40;;;;;;;22.43;10.97;;;10.00;99.90;;;;;;4993282;28;20185;-68
2023/08/11 12:14:08;;;;;;;17.10;9.40;;;9.90;99.90;;;;;;4993605;28;20592;-68
2023/08/11 12:16:36;;;;;;;14.57;9.03;;;9.90;99.90;;;;;;4993678;28;20184;-69
2023/08/11 12:19:05;;;;;;;21.03;9.53;;;9.80;99.90;;;;;;4993848;28;20187;-69
2023/08/11 12:21:33;;;;;;;20.50;11.53;;;9.80;99.90;;;;;;4992641;28;20585;-69
2023/08/11 12:24:01;;;;;;;23.77;11.43;;;9.80;99.90;;;;;;4992519;28;20195;-69
2023/08/11 12:26:29;;;;;;;26.10;11.83;;;9.80;99.90;;;;;;4993524;28;20189;-69
2023/08/11 12:28:57;;;;;;;20.63;11.57;;;9.80;99.90;;;;;;4993089;28;20267;-70
2023/08/11 12:31:24;;;;;;;20.43;11.43;;;9.80;99.90;;;;;;4993055;28;20212;-70
2023/08/11 12:33:52;;;;;;;23.07;10.73;;;9.70;99.90;;;;;;4975769;28;20705;-70
2023/08/11 12:36:20;;;;;;;19.33;10.93;;;9.70;99.90;;;;;;4993506;28;20193;-70
2023/08/11 12:38:49;;;;;;;16.90;10.37;;;9.60;99.90;;;;;;4993156;28;20668;-69
2023/08/11 12:41:18;;;;;;;16.50;10.03;;;9.60;99.90;;;;;;4992885;28;20283;-69
2023/08/11 12:43:46;;;;;;;16.10;8.90;;;9.60;99.90;;;;;;4992742;28;20637;-68
2023/08/11 12:46:14;;;;;;;11.70;8.50;;;9.50;99.90;;;;;;4975714;28;20195;-69
2023/08/11 12:48:42;;;;;;;12.67;8.27;;;9.50;99.90;;;;;;4992905;28;20191;-69
2023/08/11 12:51:10;;;;;;;11.70;8.37;;;9.50;99.90;;;;;;4992844;28;20668;-69
2023/08/11 12:53:38;;;;;;;15.77;7.70;;;9.50;99.90;;;;;;4993264;28;20182;-68
2023/08/11 12:56:06;;;;;;;12.57;7.20;;;9.50;99.90;;;;;;4993211;28;20572;-69